x

West Superior - 30nm Ne Of Outer Island, Wi (45006) Wave Buoy

9:50pm - Sat 24th Sep 2016 All times are CDT. -5 hours from GMT.

  • Sig Wave height 2.0ft
  • Swell Direction
  • Peak Period 4s
  • Average Period 3s
  • Wind
    16mph, 18mph gusts
  • Sea Temp 62°f
  • Air Temp 65°f
  • Sea Pressure 1019.2mb
  • West Superior - 30nm Ne Of Outer Island, Wi
  • West Superior - 30nm Ne Of Outer Island, Wi

More Historic Weather Station data

Upgrade to MSW Pro to gain access to the past 30 days of data for over 8000 Wavebouys and Weather Stations around the globe.

Join Pro

Comparision Forecast

View Surf forecast
   
Sat 09/24 9:50pm 2ft 4s 3s 16 18 mph 1019.2mb 62f 65f
8:50pm 1.6ft 4s 3s 16 18 mph 1019.5mb 63f 64f
7:50pm 1.6ft 4s 3s 13 16 mph 1019.9mb 63f 65f
6:50pm 2ft 4s 3s 16 18 mph 1019.3mb 62f 64f
5:50pm 2ft 4s 3s 16 18 mph 1019mb 62f 64f
4:50pm 2ft 4s 3s 18 20 mph 1019.2mb 62f 63f
3:50pm 2ft 4s 3s 16 18 mph 1020.2mb 62f 63f
2:50pm 2ft 4s 3s 13 16 mph 1021mb 62f 63f
1:50pm 2.5ft 4s 4s 13 16 mph 1021.4mb 61f 63f
12:50pm 2.5ft 4s 4s 13 16 mph 1021.9mb 61f 62f
11:50am 2.5ft 4s 4s 13 16 mph 1022.5mb 60f 61f
10:50am 2ft 4s 4s 16 18 mph 1022.7mb 60f 60f
9:50am 2ft 4s 4s 13 16 mph 1023.1mb 60f 60f
8:50am 2ft 4s 4s 16 18 mph 1023.4mb 60f 59f
7:50am 2ft 4s 4s 13 18 mph 1023.4mb 61f 59f
6:50am 2ft 5s 4s 16 18 mph 1023.3mb 62f 59f
5:50am 2.5ft 4s 4s 11 16 mph 1024mb 62f 60f
4:50am 2.5ft 4s 4s 16 18 mph 1023.7mb 62f 60f
1:50am 3ft 4s 4s 16 18 mph 1023.2mb 62f 60f
12:50am 3ft 5s 4s 18 22 mph 1022.9mb 62f 60f
Fri 09/23 11:50pm 3ft 4s 4s 20 22 mph 1022.9mb 62f 60f
10:50pm 3ft 5s 4s 20 25 mph 1023.1mb 62f 60f
9:50pm 3ft 5s 4s 20 25 mph 1023.5mb 62f 61f
8:50pm 3.5ft 5s 4s 18 22 mph 1023.4mb 62f 61f
7:50pm 3.5ft 5s 4s 20 22 mph 1023mb 62f 61f
6:50pm 3.5ft 5s 4s 20 22 mph 1023.2mb 62f 61f
5:50pm 3.5ft 5s 4s 20 22 mph 1023.2mb 62f 60f
4:50pm 3ft 5s 4s 20 22 mph 1023.2mb 62f 60f
3:50pm 2.5ft 5s 4s 18 20 mph 1023.7mb 62f 61f
2:50pm 2.5ft 4s 4s 16 18 mph 1024mb 62f 61f
1:50pm 2.5ft 4s 4s 16 20 mph 1024.2mb 62f 61f
12:50pm 2ft 4s 4s 16 18 mph 1024.5mb 62f 62f
11:50am 2.5ft 4s 4s 13 18 mph 1024.9mb 62f 62f
10:50am 2ft 4s 3s 16 20 mph 1025mb 62f 61f
9:50am 2.5ft 4s 4s 16 18 mph 1025.1mb 62f 61f
8:50am 2.5ft 4s 3s 16 18 mph 1024.5mb 62f 61f
7:50am 2.5ft 4s 3s 18 20 mph 1024.2mb 62f 60f
6:50am 2.5ft 4s 4s 18
mph
1023.8mb 62f 59f
5:50am 2.5ft 4s 3s 13 16 mph 1024.1mb 62f 59f
4:50am 2.5ft 4s 4s 13 18 mph 1023.6mb 62f 59f
3:50am 2.5ft 4s 3s 16 20 mph 1022.8mb 62f 60f
2:50am 2ft 4s 3s 18 22 mph 1022.3mb 62f 60f
1:50am 1.3ft 3s 3s 18 20 mph 1022.3mb 62f 61f
12:50am 1ft 4s 3s 13 16 mph 1022mb 62f 61f
Thu 09/22 11:50pm 1ft 4s 3s 11 13 mph 1022mb 62f 61f
10:50pm 1ft 3s 3s 9
mph
1022.2mb 62f 61f
9:50pm 1.3ft 3s 3s 7 9 mph 1021.8mb 62f 61f
8:50pm 1.3ft 4s 3s 11 13 mph 1021.5mb 62f 61f
7:50pm 1.3ft 4s 3s 11 13 mph 1021.4mb 62f 61f
6:50pm 1.3ft 4s 3s 13 16 mph 1020.8mb 62f 61f
5:50pm 1.6ft 4s 3s 11 13 mph 1020.5mb 62f 60f
4:50pm 1.6ft 3s 3s 11 13 mph 1019.9mb 62f 60f
3:50pm 2ft 3s 3s 11 13 mph 1019.9mb 62f 60f
2:50pm 2ft 4s 3s 13 16 mph 1019.8mb 62f 60f
1:50pm 2.5ft 4s 3s 16 18 mph 1019.3mb 62f 60f
12:50pm 2.5ft 4s 3s 13 16 mph 1019.4mb 62f 61f
11:50am 2.5ft 4s 4s 18 22 mph 1019mb 62f 59f
10:50am 2.5ft 4s 4s 13 16 mph 1019.4mb 62f 60f
9:50am 2.5ft 5s 4s 16 18 mph 1019.1mb 62f 61f
8:50am 2.5ft 5s  -  18 20 mph 1019.1mb 62f 60f
7:50am 3ft 5s 4s 18 20 mph 1018.5mb 62f 61f
6:50am 3ft 5s 4s 16 20 mph 1019.1mb 62f 60f
5:50am 2.5ft 4s 4s 16 20 mph 1018.6mb 62f 60f
4:50am 2.5ft 4s 4s 20 25 mph 1018.5mb 62f 60f
3:50am 1.6ft 4s 3s 18 22 mph 1018.5mb 62f 61f
2:50am 1.6ft 3s 3s 18 20 mph 1019.1mb 62f 59f
1:50am 1.6ft 3s 3s 16 18 mph 1019.4mb 62f 58f
12:50am 2ft 3s 3s 11 13 mph 1019.5mb 62f 58f
Wed 09/21 11:50pm 2.5ft 4s 3s 16 18 mph 1019.3mb 62f 62f
10:50pm 2.5ft 4s 3s 16 20 mph 1019.7mb 62f 62f
9:50pm 2ft 4s 3s 18 20 mph 1019.3mb 62f 62f
8:50pm 1.6ft 4s 3s 16 20 mph 1019.8mb 62f 62f
7:50pm 1.3ft 4s 3s 16 18 mph 1020.4mb 62f 62f
6:50pm 1.3ft 4s 3s 13 16 mph 1020.9mb 62f 62f
5:50pm 1.3ft 3s 3s 11 13 mph 1021.1mb 62f 62f
4:50pm 1ft 3s 3s 16
mph
1020mb 62f 62f
3:50pm 1ft 3s 3s 11 13 mph 1020.8mb 62f 62f
2:50pm 0.7ft  -  3s 13
mph
1020.6mb 62f 61f
1:50pm 0.7ft  -  3s 11
mph
1021.4mb 62f 61f
12:50pm 1ft 3s 3s 11 13 mph 1022mb 62f 61f
11:50am 1ft 3s 3s 11 13 mph 1022.3mb 62f 61f
10:50am 1ft 3s 3s 9 11 mph 1022.9mb 62f 62f
9:50am 1ft 2s 3s 11
mph
1022.4mb 62f 63f
8:50am 0.7ft  -  3s 11 13 mph 1021.2mb 62f 63f
7:50am 0.3ft  -  3s 11 13 mph 1020.5mb 62f 63f
6:50am 0.3ft  -  4s 11 13 mph 1020.1mb 62f 62f
5:50am 0.7ft  -  3s 9 11 mph 1020mb 62f 62f
4:50am 0.7ft  -  3s 9 11 mph 1020mb 62f 62f